sensor_id;sensor_type;location;lat;lon;timestamp;pressure;altitude;pressure_sealevel;temperature;humidity
2188;BME280;1100;52.014;8.540;2023-04-27T00:00:55;100527.94;;;2.78;69.57
2188;BME280;1100;52.014;8.540;2023-04-27T00:03:21;100531.56;;;2.85;69.75
2188;BME280;1100;52.014;8.540;2023-04-27T00:05:46;100539.44;;;2.91;69.74
2188;BME280;1100;52.014;8.540;2023-04-27T00:08:12;100538.75;;;2.97;69.99
2188;BME280;1100;52.014;8.540;2023-04-27T00:10:37;100530.94;;;3.03;69.82
2188;BME280;1100;52.014;8.540;2023-04-27T00:13:02;100530.63;;;3.08;69.84
2188;BME280;1100;52.014;8.540;2023-04-27T00:15:28;100533.81;;;3.14;70.06
2188;BME280;1100;52.014;8.540;2023-04-27T00:17:53;100542.09;;;3.18;70.00
2188;BME280;1100;52.014;8.540;2023-04-27T00:20:19;100541.34;;;3.21;69.90
2188;BME280;1100;52.014;8.540;2023-04-27T00:22:45;100532.72;;;3.22;69.93
2188;BME280;1100;52.014;8.540;2023-04-27T00:25:10;100533.91;;;3.25;69.79
2188;BME280;1100;52.014;8.540;2023-04-27T00:27:36;100536.66;;;3.25;69.90
2188;BME280;1100;52.014;8.540;2023-04-27T00:30:01;100536.63;;;3.21;69.62
2188;BME280;1100;52.014;8.540;2023-04-27T00:32:27;100531.91;;;3.18;70.02
2188;BME280;1100;52.014;8.540;2023-04-27T00:34:52;100535.41;;;3.15;69.95
2188;BME280;1100;52.014;8.540;2023-04-27T00:37:17;100536.53;;;3.10;69.96
2188;BME280;1100;52.014;8.540;2023-04-27T00:39:43;100534.13;;;3.05;69.97
2188;BME280;1100;52.014;8.540;2023-04-27T00:42:09;100538.78;;;3.01;69.79
2188;BME280;1100;52.014;8.540;2023-04-27T00:44:38;100532.88;;;2.99;70.22
2188;BME280;1100;52.014;8.540;2023-04-27T00:47:04;100535.63;;;2.99;70.25
2188;BME280;1100;52.014;8.540;2023-04-27T00:49:30;100531.31;;;3.02;69.87
2188;BME280;1100;52.014;8.540;2023-04-27T00:51:56;100539.56;;;3.02;70.28
2188;BME280;1100;52.014;8.540;2023-04-27T00:54:22;100538.41;;;3.03;70.23
2188;BME280;1100;52.014;8.540;2023-04-27T00:56:51;100542.72;;;3.04;70.34
2188;BME280;1100;52.014;8.540;2023-04-27T00:59:18;100539.19;;;3.03;70.51
2188;BME280;1100;52.014;8.540;2023-04-27T01:01:44;100548.28;;;3.11;70.52
2188;BME280;1100;52.014;8.540;2023-04-27T01:04:10;100554.59;;;3.11;70.69
2188;BME280;1100;52.014;8.540;2023-04-27T01:06:35;100556.53;;;3.11;70.26
2188;BME280;1100;52.014;8.540;2023-04-27T01:09:01;100560.09;;;3.11;70.37
2188;BME280;1100;52.014;8.540;2023-04-27T01:11:29;100560.47;;;3.10;70.48
2188;BME280;1100;52.014;8.540;2023-04-27T01:13:55;100562.78;;;3.08;70.55
2188;BME280;1100;52.014;8.540;2023-04-27T01:16:21;100561.59;;;3.05;70.34
2188;BME280;1100;52.014;8.540;2023-04-27T01:18:46;100559.59;;;3.02;70.64
2188;BME280;1100;52.014;8.540;2023-04-27T01:21:12;100572.16;;;3.03;70.58
2188;BME280;1100;52.014;8.540;2023-04-27T01:23:37;100570.56;;;3.02;70.33
2188;BME280;1100;52.014;8.540;2023-04-27T01:26:03;100567.84;;;3.02;70.69
2188;BME280;1100;52.014;8.540;2023-04-27T01:28:28;100576.88;;;3.06;70.52
2188;BME280;1100;52.014;8.540;2023-04-27T01:30:54;100573.38;;;3.06;70.47
2188;BME280;1100;52.014;8.540;2023-04-27T01:33:19;100582.38;;;3.06;70.70
2188;BME280;1100;52.014;8.540;2023-04-27T01:35:44;100580.38;;;3.03;70.47
2188;BME280;1100;52.014;8.540;2023-04-27T01:38:10;100579.56;;;2.99;70.31
2188;BME280;1100;52.014;8.540;2023-04-27T01:40:36;100592.13;;;3.00;70.61
2188;BME280;1100;52.014;8.540;2023-04-27T01:43:01;100598.03;;;3.02;70.89
2188;BME280;1100;52.014;8.540;2023-04-27T01:45:27;100602.34;;;3.03;70.50
2188;BME280;1100;52.014;8.540;2023-04-27T01:47:52;100593.72;;;3.01;70.65
2188;BME280;1100;52.014;8.540;2023-04-27T01:50:18;100596.84;;;2.99;70.38
2188;BME280;1100;52.014;8.540;2023-04-27T01:52:44;100588.19;;;2.97;70.52
2188;BME280;1100;52.014;8.540;2023-04-27T01:55:10;100592.09;;;2.96;70.58
2188;BME280;1100;52.014;8.540;2023-04-27T01:57:35;100597.97;;;2.95;70.57
2188;BME280;1100;52.014;8.540;2023-04-27T02:00:01;100600.28;;;2.93;70.54
2188;BME280;1100;52.014;8.540;2023-04-27T02:02:26;100598.28;;;2.90;70.39
2188;BME280;1100;52.014;8.540;2023-04-27T02:04:51;100605.69;;;2.85;70.46
2188;BME280;1100;52.014;8.540;2023-04-27T02:07:17;100607.59;;;2.81;70.57
2188;BME280;1100;52.014;8.540;2023-04-27T02:09:42;100605.19;;;2.76;70.72
2188;BME280;1100;52.014;8.540;2023-04-27T02:12:07;100601.59;;;2.72;70.34
2188;BME280;1100;52.014;8.540;2023-04-27T02:14:33;100614.06;;;2.66;70.40
2188;BME280;1100;52.014;8.540;2023-04-27T02:16:58;100611.22;;;2.58;70.49
2188;BME280;1100;52.014;8.540;2023-04-27T02:19:23;100615.81;;;2.51;70.49
2188;BME280;1100;52.014;8.540;2023-04-27T02:21:49;100612.19;;;2.43;70.54
2188;BME280;1100;52.014;8.540;2023-04-27T02:24:14;100610.50;;;2.34;70.49
2188;BME280;1100;52.014;8.540;2023-04-27T02:26:40;100611.53;;;2.26;70.50
2188;BME280;1100;52.014;8.540;2023-04-27T02:29:05;100609.13;;;2.21;70.70
2188;BME280;1100;52.014;8.540;2023-04-27T02:31:30;100615.28;;;2.14;70.33
2188;BME280;1100;52.014;8.540;2023-04-27T02:33:56;100617.56;;;2.08;70.47
2188;BME280;1100;52.014;8.540;2023-04-27T02:36:21;100608.06;;;2.02;70.51
2188;BME280;1100;52.014;8.540;2023-04-27T02:38:46;100606.78;;;1.96;70.47
2188;BME280;1100;52.014;8.540;2023-04-27T02:41:12;100609.81;;;1.91;70.66
2188;BME280;1100;52.014;8.540;2023-04-27T02:43:37;100612.47;;;1.83;70.52
2188;BME280;1100;52.014;8.540;2023-04-27T02:46:02;100620.19;;;1.78;70.23
2188;BME280;1100;52.014;8.540;2023-04-27T02:48:29;100615.38;;;1.71;70.70
2188;BME280;1100;52.014;8.540;2023-04-27T02:50:55;100608.63;;;1.65;70.46
2188;BME280;1100;52.014;8.540;2023-04-27T02:53:21;100619.50;;;1.61;70.74
2188;BME280;1100;52.014;8.540;2023-04-27T02:55:47;100618.59;;;1.53;70.55
2188;BME280;1100;52.014;8.540;2023-04-27T02:58:12;100607.91;;;1.48;70.69
2188;BME280;1100;52.014;8.540;2023-04-27T03:00:38;100608.72;;;1.48;70.96
2188;BME280;1100;52.014;8.540;2023-04-27T03:03:05;100599.22;;;1.42;70.56
2188;BME280;1100;52.014;8.540;2023-04-27T03:05:31;100602.69;;;1.39;70.73
2188;BME280;1100;52.014;8.540;2023-04-27T03:07:57;100610.06;;;1.35;70.85
2188;BME280;1100;52.014;8.540;2023-04-27T03:10:22;100600.53;;;1.29;70.82
2188;BME280;1100;52.014;8.540;2023-04-27T03:12:47;100610.53;;;1.21;70.56
2188;BME280;1100;52.014;8.540;2023-04-27T03:15:13;100602.63;;;1.16;70.61
2188;BME280;1100;52.014;8.540;2023-04-27T03:17:38;100602.56;;;1.12;70.60
2188;BME280;1100;52.014;8.540;2023-04-27T03:20:04;100602.91;;;1.10;70.72
2188;BME280;1100;52.014;8.540;2023-04-27T03:22:33;100603.28;;;1.09;70.94
2188;BME280;1100;52.014;8.540;2023-04-27T03:24:58;100595.34;;;1.04;70.95
2188;BME280;1100;52.014;8.540;2023-04-27T03:27:24;100584.72;;;0.98;70.97
2188;BME280;1100;52.014;8.540;2023-04-27T03:29:52;100590.81;;;0.92;70.87
2188;BME280;1100;52.014;8.540;2023-04-27T03:32:18;100586.44;;;0.87;70.75
2188;BME280;1100;52.014;8.540;2023-04-27T03:34:43;100591.81;;;0.83;70.96
2188;BME280;1100;52.014;8.540;2023-04-27T03:37:08;100591.78;;;0.80;70.92
2188;BME280;1100;52.014;8.540;2023-04-27T03:39:33;100590.88;;;0.76;71.09
2188;BME280;1100;52.014;8.540;2023-04-27T03:41:59;100598.59;;;0.70;71.08
2188;BME280;1100;52.014;8.540;2023-04-27T03:44:24;100587.91;;;0.65;70.74
2188;BME280;1100;52.014;8.540;2023-04-27T03:46:50;100589.34;;;0.58;70.94
2188;BME280;1100;52.014;8.540;2023-04-27T03:49:15;100583.38;;;0.53;70.98
2188;BME280;1100;52.014;8.540;2023-04-27T03:51:40;100589.22;;;0.51;70.96
2188;BME280;1100;52.014;8.540;2023-04-27T03:54:06;100600.06;;;0.47;71.23
2188;BME280;1100;52.014;8.540;2023-04-27T03:56:32;100587.91;;;0.45;71.28
2188;BME280;1100;52.014;8.540;2023-04-27T03:58:58;100593.72;;;0.43;71.21
2188;BME280;1100;52.014;8.540;2023-04-27T04:01:23;100597.28;;;0.44;71.38
2188;BME280;1100;52.014;8.540;2023-04-27T04:03:49;100594.44;;;0.40;71.40
2188;BME280;1100;52.014;8.540;2023-04-27T04:06:15;100600.72;;;0.41;71.44
2188;BME280;1100;52.014;8.540;2023-04-27T04:08:41;100599.09;;;0.40;71.33
2188;BME280;1100;52.014;8.540;2023-04-27T04:11:06;100612.00;;;0.39;71.41
2188;BME280;1100;52.014;8.540;2023-04-27T04:13:31;100606.09;;;0.37;71.56
2188;BME280;1100;52.014;8.540;2023-04-27T04:16:07;100608.47;;;0.39;71.43
2188;BME280;1100;52.014;8.540;2023-04-27T04:18:33;100611.47;;;0.33;71.34
2188;BME280;1100;52.014;8.540;2023-04-27T04:20:58;100611.41;;;0.30;71.43
2188;BME280;1100;52.014;8.540;2023-04-27T04:23:24;100617.41;;;0.35;71.91
2188;BME280;1100;52.014;8.540;2023-04-27T04:25:50;100615.97;;;0.42;71.85
2188;BME280;1100;52.014;8.540;2023-04-27T04:28:16;100620.72;;;0.45;71.72
2188;BME280;1100;52.014;8.540;2023-04-27T04:30:41;100623.56;;;0.48;71.86
2188;BME280;1100;52.014;8.540;2023-04-27T04:33:07;100626.28;;;0.48;71.82
2188;BME280;1100;52.014;8.540;2023-04-27T04:35:33;100616.13;;;0.49;71.72
2188;BME280;1100;52.014;8.540;2023-04-27T04:38:01;100626.28;;;0.48;71.77
2188;BME280;1100;52.014;8.540;2023-04-27T04:40:27;100630.97;;;0.48;71.58
2188;BME280;1100;52.014;8.540;2023-04-27T04:42:52;100629.03;;;0.48;71.86
2188;BME280;1100;52.014;8.540;2023-04-27T04:45:17;100619.31;;;0.51;71.89
2188;BME280;1100;52.014;8.540;2023-04-27T04:47:43;100635.44;;;0.56;72.00
2188;BME280;1100;52.014;8.540;2023-04-27T04:50:08;100637.81;;;0.58;71.91
2188;BME280;1100;52.014;8.540;2023-04-27T04:52:34;100640.63;;;0.61;72.09
2188;BME280;1100;52.014;8.540;2023-04-27T04:55:01;100630.47;;;0.62;71.99
2188;BME280;1100;52.014;8.540;2023-04-27T04:57:27;100636.91;;;0.70;72.29
2188;BME280;1100;52.014;8.540;2023-04-27T04:59:52;100631.53;;;0.73;72.34
2188;BME280;1100;52.014;8.540;2023-04-27T05:02:18;100641.81;;;0.80;72.22
2188;BME280;1100;52.014;8.540;2023-04-27T05:04:43;100640.38;;;0.86;72.29
2188;BME280;1100;52.014;8.540;2023-04-27T05:07:08;100635.47;;;0.96;72.56
2188;BME280;1100;52.014;8.540;2023-04-27T05:09:35;100640.41;;;1.06;72.49
2188;BME280;1100;52.014;8.540;2023-04-27T05:12:00;100642.13;;;1.15;72.36
2188;BME280;1100;52.014;8.540;2023-04-27T05:14:26;100644.22;;;1.21;72.55
2188;BME280;1100;52.014;8.540;2023-04-27T05:16:51;100646.34;;;1.32;72.47
2188;BME280;1100;52.014;8.540;2023-04-27T05:19:16;100645.00;;;1.42;72.48
2188;BME280;1100;52.014;8.540;2023-04-27T05:21:43;100640.44;;;1.49;72.73
2188;BME280;1100;52.014;8.540;2023-04-27T05:24:08;100647.28;;;1.59;72.53
2188;BME280;1100;52.014;8.540;2023-04-27T05:26:34;100645.09;;;1.69;72.62
2188;BME280;1100;52.014;8.540;2023-04-27T05:28:59;100651.69;;;1.88;72.80
2188;BME280;1100;52.014;8.540;2023-04-27T05:31:24;100654.59;;;1.98;72.83
2188;BME280;1100;52.014;8.540;2023-04-27T05:33:50;100664.00;;;2.21;72.95
2188;BME280;1100;52.014;8.540;2023-04-27T05:36:15;100656.41;;;2.38;72.98
2188;BME280;1100;52.014;8.540;2023-04-27T05:38:40;100665.59;;;2.49;72.89
2188;BME280;1100;52.014;8.540;2023-04-27T05:41:07;100671.25;;;2.60;72.57
2188;BME280;1100;52.014;8.540;2023-04-27T05:43:32;100662.38;;;2.70;72.77
2188;BME280;1100;52.014;8.540;2023-04-27T05:45:59;100672.75;;;2.84;72.98
2188;BME280;1100;52.014;8.540;2023-04-27T05:48:27;100674.50;;;2.96;72.94
2188;BME280;1100;52.014;8.540;2023-04-27T05:51:02;100671.91;;;3.11;72.84
2188;BME280;1100;52.014;8.540;2023-04-27T05:53:28;100670.47;;;3.21;72.73
2188;BME280;1100;52.014;8.540;2023-04-27T05:55:55;100678.91;;;3.35;72.38
2188;BME280;1100;52.014;8.540;2023-04-27T05:58:20;100680.22;;;3.49;72.58
2188;BME280;1100;52.014;8.540;2023-04-27T06:00:46;100680.34;;;3.60;72.44
2188;BME280;1100;52.014;8.540;2023-04-27T06:03:11;100684.75;;;3.72;72.30
2188;BME280;1100;52.014;8.540;2023-04-27T06:05:37;100694.31;;;3.82;72.43
2188;BME280;1100;52.014;8.540;2023-04-27T06:08:02;100688.09;;;3.92;72.48
2188;BME280;1100;52.014;8.540;2023-04-27T06:10:27;100686.25;;;4.04;72.23
2188;BME280;1100;52.014;8.540;2023-04-27T06:12:53;100688.72;;;4.16;72.05
2188;BME280;1100;52.014;8.540;2023-04-27T06:15:18;100688.03;;;4.27;72.12
2188;BME280;1100;52.014;8.540;2023-04-27T06:17:43;100688.50;;;4.36;72.00
2188;BME280;1100;52.014;8.540;2023-04-27T06:20:10;100694.84;;;4.47;71.73
2188;BME280;1100;52.014;8.540;2023-04-27T06:22:36;100694.09;;;4.51;71.90
2188;BME280;1100;52.014;8.540;2023-04-27T06:25:03;100690.56;;;4.54;71.47
2188;BME280;1100;52.014;8.540;2023-04-27T06:27:28;100691.41;;;4.61;71.49
2188;BME280;1100;52.014;8.540;2023-04-27T06:29:53;100691.09;;;4.74;71.91
2188;BME280;1100;52.014;8.540;2023-04-27T06:32:19;100682.94;;;4.89;71.56
2188;BME280;1100;52.014;8.540;2023-04-27T06:34:45;100684.59;;;5.04;71.93
2188;BME280;1100;52.014;8.540;2023-04-27T06:37:10;100688.19;;;5.19;71.45
2188;BME280;1100;52.014;8.540;2023-04-27T06:39:36;100696.09;;;5.32;71.44
2188;BME280;1100;52.014;8.540;2023-04-27T06:42:01;100693.00;;;5.41;71.14
2188;BME280;1100;52.014;8.540;2023-04-27T06:44:28;100693.03;;;5.48;70.96
2188;BME280;1100;52.014;8.540;2023-04-27T06:46:54;100690.72;;;5.65;71.36
2188;BME280;1100;52.014;8.540;2023-04-27T06:49:19;100692.34;;;5.80;71.08
2188;BME280;1100;52.014;8.540;2023-04-27T06:51:45;100693.91;;;5.89;70.65
2188;BME280;1100;52.014;8.540;2023-04-27T06:54:10;100696.28;;;5.90;70.54
2188;BME280;1100;52.014;8.540;2023-04-27T06:56:36;100692.75;;;5.97;70.64
2188;BME280;1100;52.014;8.540;2023-04-27T06:59:02;100695.16;;;6.09;70.47
2188;BME280;1100;52.014;8.540;2023-04-27T07:01:27;100707.38;;;6.23;70.63
2188;BME280;1100;52.014;8.540;2023-04-27T07:03:52;100696.34;;;6.30;70.21
2188;BME280;1100;52.014;8.540;2023-04-27T07:06:18;100705.03;;;6.40;70.09
2188;BME280;1100;52.014;8.540;2023-04-27T07:08:43;100707.75;;;6.43;70.18
2188;BME280;1100;52.014;8.540;2023-04-27T07:11:08;100707.38;;;6.52;70.08
2188;BME280;1100;52.014;8.540;2023-04-27T07:13:34;100705.78;;;6.62;70.23
2188;BME280;1100;52.014;8.540;2023-04-27T07:15:59;100695.50;;;6.73;69.56
2188;BME280;1100;52.014;8.540;2023-04-27T07:18:25;100704.22;;;6.68;69.55
2188;BME280;1100;52.014;8.540;2023-04-27T07:20:53;100711.72;;;6.71;69.31
2188;BME280;1100;52.014;8.540;2023-04-27T07:23:18;100698.66;;;6.83;69.64
2188;BME280;1100;52.014;8.540;2023-04-27T07:25:43;100706.50;;;6.99;70.06
2188;BME280;1100;52.014;8.540;2023-04-27T07:28:10;100695.38;;;7.21;69.44
2188;BME280;1100;52.014;8.540;2023-04-27T07:30:36;100702.41;;;7.40;69.57
2188;BME280;1100;52.014;8.540;2023-04-27T07:33:02;100693.69;;;7.45;68.60
2188;BME280;1100;52.014;8.540;2023-04-27T07:35:27;100694.78;;;7.63;68.25
2188;BME280;1100;52.014;8.540;2023-04-27T07:37:52;100693.41;;;7.93;68.05
2188;BME280;1100;52.014;8.540;2023-04-27T07:40:18;100682.91;;;8.22;68.22
2188;BME280;1100;52.014;8.540;2023-04-27T07:42:43;100685.41;;;8.59;68.11
2188;BME280;1100;52.014;8.540;2023-04-27T07:45:10;100690.34;;;8.79;67.36
2188;BME280;1100;52.014;8.540;2023-04-27T07:47:36;100694.00;;;9.07;67.36
2188;BME280;1100;52.014;8.540;2023-04-27T07:50:02;100696.59;;;9.21;65.90
2188;BME280;1100;52.014;8.540;2023-04-27T07:52:28;100690.88;;;9.36;65.80
2188;BME280;1100;52.014;8.540;2023-04-27T07:54:54;100686.72;;;9.52;65.91
2188;BME280;1100;52.014;8.540;2023-04-27T07:57:19;100684.63;;;9.59;65.42
2188;BME280;1100;52.014;8.540;2023-04-27T07:59:44;100685.63;;;9.73;64.71
2188;BME280;1100;52.014;8.540;2023-04-27T08:02:11;100693.88;;;9.80;64.69
2188;BME280;1100;52.014;8.540;2023-04-27T08:04:37;100686.47;;;9.97;64.67
2188;BME280;1100;52.014;8.540;2023-04-27T08:07:02;100691.19;;;10.01;64.45
2188;BME280;1100;52.014;8.540;2023-04-27T08:09:28;100691.28;;;9.93;64.53
2188;BME280;1100;52.014;8.540;2023-04-27T08:11:53;100690.28;;;10.07;64.24
2188;BME280;1100;52.014;8.540;2023-04-27T08:14:18;100694.97;;;10.10;63.94
2188;BME280;1100;52.014;8.540;2023-04-27T08:16:46;100686.06;;;10.23;63.80
2188;BME280;1100;52.014;8.540;2023-04-27T08:19:12;100680.41;;;10.30;63.51
2188;BME280;1100;52.014;8.540;2023-04-27T08:21:37;100689.06;;;10.32;62.82
2188;BME280;1100;52.014;8.540;2023-04-27T08:24:06;100692.34;;;10.27;61.63
2188;BME280;1100;52.014;8.540;2023-04-27T08:26:32;100689.34;;;10.18;62.03
2188;BME280;1100;52.014;8.540;2023-04-27T08:28:57;100689.06;;;10.32;61.86
2188;BME280;1100;52.014;8.540;2023-04-27T08:31:24;100695.28;;;10.40;61.44
2188;BME280;1100;52.014;8.540;2023-04-27T08:33:51;100690.66;;;10.57;61.71
2188;BME280;1100;52.014;8.540;2023-04-27T08:36:17;100692.97;;;10.63;61.63
2188;BME280;1100;52.014;8.540;2023-04-27T08:38:43;100693.84;;;10.80;61.24
2188;BME280;1100;52.014;8.540;2023-04-27T08:41:08;100687.94;;;10.98;61.21
2188;BME280;1100;52.014;8.540;2023-04-27T08:43:34;100692.50;;;11.08;60.02
2188;BME280;1100;52.014;8.540;2023-04-27T08:46:00;100688.69;;;11.39;60.71
2188;BME280;1100;52.014;8.540;2023-04-27T08:48:25;100695.88;;;11.57;60.07
2188;BME280;1100;52.014;8.540;2023-04-27T08:50:51;100689.88;;;11.58;59.22
2188;BME280;1100;52.014;8.540;2023-04-27T08:53:21;100677.81;;;11.82;59.73
2188;BME280;1100;52.014;8.540;2023-04-27T08:55:50;100681.47;;;11.95;57.48
2188;BME280;1100;52.014;8.540;2023-04-27T08:58:15;100678.69;;;11.79;57.41
2188;BME280;1100;52.014;8.540;2023-04-27T09:00:41;100676.34;;;11.77;57.57
2188;BME280;1100;52.014;8.540;2023-04-27T09:03:26;100683.22;;;11.36;58.20
2188;BME280;1100;52.014;8.540;2023-04-27T09:05:51;100693.28;;;10.68;58.55
2188;BME280;1100;52.014;8.540;2023-04-27T09:08:16;100681.22;;;10.03;58.98
2188;BME280;1100;52.014;8.540;2023-04-27T09:10:46;100683.88;;;9.87;58.92
2188;BME280;1100;52.014;8.540;2023-04-27T09:13:12;100687.44;;;10.11;59.56
2188;BME280;1100;52.014;8.540;2023-04-27T09:15:45;100685.41;;;10.63;59.60
2188;BME280;1100;52.014;8.540;2023-04-27T09:18:18;100672.53;;;11.14;58.97
2188;BME280;1100;52.014;8.540;2023-04-27T09:20:49;100681.03;;;11.64;59.03
2188;BME280;1100;52.014;8.540;2023-04-27T09:23:27;100674.94;;;11.69;58.29
2188;BME280;1100;52.014;8.540;2023-04-27T09:25:54;100682.59;;;11.28;58.04
2188;BME280;1100;52.014;8.540;2023-04-27T09:28:27;100680.94;;;10.69;58.46
2188;BME280;1100;52.014;8.540;2023-04-27T09:30:55;100681.16;;;10.07;58.17
2188;BME280;1100;52.014;8.540;2023-04-27T09:33:25;100685.56;;;9.49;58.64
2188;BME280;1100;52.014;8.540;2023-04-27T09:35:52;100681.13;;;9.24;57.98
2188;BME280;1100;52.014;8.540;2023-04-27T09:38:18;100674.63;;;9.38;58.11
2188;BME280;1100;52.014;8.540;2023-04-27T09:40:44;100681.03;;;9.63;57.72
2188;BME280;1100;52.014;8.540;2023-04-27T09:43:10;100675.78;;;10.20;58.06
2188;BME280;1100;52.014;8.540;2023-04-27T09:45:36;100677.69;;;10.95;57.81
2188;BME280;1100;52.014;8.540;2023-04-27T09:48:03;100678.81;;;11.55;57.28
2188;BME280;1100;52.014;8.540;2023-04-27T09:50:32;100676.38;;;12.27;56.90
2188;BME280;1100;52.014;8.540;2023-04-27T09:52:58;100669.03;;;12.50;55.48
2188;BME280;1100;52.014;8.540;2023-04-27T09:55:28;100665.09;;;12.94;56.16
2188;BME280;1100;52.014;8.540;2023-04-27T10:09:14;100662.28;;;13.89;52.74
2188;BME280;1100;52.014;8.540;2023-04-27T10:11:42;100666.22;;;13.78;52.22
2188;BME280;1100;52.014;8.540;2023-04-27T10:14:13;100659.72;;;13.81;52.93
2188;BME280;1100;52.014;8.540;2023-04-27T10:19:14;100666.44;;;13.58;52.96
2188;BME280;1100;52.014;8.540;2023-04-27T10:22:00;100665.22;;;13.59;51.32
2188;BME280;1100;52.014;8.540;2023-04-27T10:24:37;100656.50;;;13.01;50.99
2188;BME280;1100;52.014;8.540;2023-04-27T10:27:05;100646.44;;;12.31;52.02
2188;BME280;1100;52.014;8.540;2023-04-27T10:29:35;100650.50;;;11.93;52.90
2188;BME280;1100;52.014;8.540;2023-04-27T10:32:05;100645.72;;;12.44;52.63
2188;BME280;1100;52.014;8.540;2023-04-27T10:34:33;100641.88;;;12.97;52.92
2188;BME280;1100;52.014;8.540;2023-04-27T10:37:07;100646.41;;;13.33;47.48
2188;BME280;1100;52.014;8.540;2023-04-27T10:39:38;100642.44;;;13.05;49.58
2188;BME280;1100;52.014;8.540;2023-04-27T10:42:05;100641.59;;;13.34;50.38
2188;BME280;1100;52.014;8.540;2023-04-27T10:44:32;100636.38;;;13.88;50.42
2188;BME280;1100;52.014;8.540;2023-04-27T10:47:00;100638.25;;;14.40;50.18
2188;BME280;1100;52.014;8.540;2023-04-27T10:49:27;100641.94;;;14.72;50.35
2188;BME280;1100;52.014;8.540;2023-04-27T10:51:53;100641.91;;;14.85;49.86
2188;BME280;1100;52.014;8.540;2023-04-27T10:54:18;100635.31;;;15.01;50.26
2188;BME280;1100;52.014;8.540;2023-04-27T10:56:44;100637.31;;;15.23;50.01
2188;BME280;1100;52.014;8.540;2023-04-27T10:59:10;100640.41;;;15.25;49.38
2188;BME280;1100;52.014;8.540;2023-04-27T11:01:36;100629.97;;;15.16;48.84
2188;BME280;1100;52.014;8.540;2023-04-27T11:04:02;100634.91;;;15.12;49.03
2188;BME280;1100;52.014;8.540;2023-04-27T11:06:28;100635.44;;;14.98;48.54
2188;BME280;1100;52.014;8.540;2023-04-27T11:08:55;100626.66;;;15.09;48.18
2188;BME280;1100;52.014;8.540;2023-04-27T11:11:20;100621.06;;;14.86;46.84
2188;BME280;1100;52.014;8.540;2023-04-27T11:13:49;100611.72;;;14.44;45.43
2188;BME280;1100;52.014;8.540;2023-04-27T11:16:17;100608.47;;;14.11;46.48
2188;BME280;1100;52.014;8.540;2023-04-27T11:18:43;100607.06;;;14.41;47.88
2188;BME280;1100;52.014;8.540;2023-04-27T11:21:10;100607.59;;;14.72;47.13
2188;BME280;1100;52.014;8.540;2023-04-27T11:23:35;100608.13;;;14.79;46.87
2188;BME280;1100;52.014;8.540;2023-04-27T11:28:33;100597.28;;;15.13;47.06
2188;BME280;1100;52.014;8.540;2023-04-27T11:30:59;100583.91;;;15.17;47.38
2188;BME280;1100;52.014;8.540;2023-04-27T11:33:25;100597.31;;;15.23;46.20
2188;BME280;1100;52.014;8.540;2023-04-27T11:35:51;100593.44;;;15.20;44.08
2188;BME280;1100;52.014;8.540;2023-04-27T11:38:17;100591.22;;;15.15;45.13
2188;BME280;1100;52.014;8.540;2023-04-27T11:40:45;100586.31;;;15.38;45.99
2188;BME280;1100;52.014;8.540;2023-04-27T11:43:11;100594.16;;;15.52;45.35
2188;BME280;1100;52.014;8.540;2023-04-27T11:45:43;100585.69;;;15.34;44.02
2188;BME280;1100;52.014;8.540;2023-04-27T11:48:13;100589.22;;;15.15;44.87
2188;BME280;1100;52.014;8.540;2023-04-27T11:50:39;100592.03;;;15.25;44.56
2188;BME280;1100;52.014;8.540;2023-04-27T11:53:04;100591.75;;;15.00;44.97
2188;BME280;1100;52.014;8.540;2023-04-27T11:55:34;100583.59;;;15.15;45.66
2188;BME280;1100;52.014;8.540;2023-04-27T11:58:00;100580.94;;;15.12;44.26
2188;BME280;1100;52.014;8.540;2023-04-27T12:00:25;100589.31;;;14.80;44.10
2188;BME280;1100;52.014;8.540;2023-04-27T12:02:50;100589.34;;;14.44;44.65
2188;BME280;1100;52.014;8.540;2023-04-27T12:05:16;100597.44;;;14.29;44.19
2188;BME280;1100;52.014;8.540;2023-04-27T12:07:43;100593.59;;;14.14;43.40
2188;BME280;1100;52.014;8.540;2023-04-27T12:10:09;100596.47;;;13.88;44.82
2188;BME280;1100;52.014;8.540;2023-04-27T12:12:35;100593.22;;;13.89;44.67
2188;BME280;1100;52.014;8.540;2023-04-27T12:15:00;100592.44;;;13.89;45.04
2188;BME280;1100;52.014;8.540;2023-04-27T12:17:26;100591.53;;;13.92;45.13
2188;BME280;1100;52.014;8.540;2023-04-27T12:19:51;100583.81;;;13.96;45.17
2188;BME280;1100;52.014;8.540;2023-04-27T12:22:17;100589.31;;;13.87;44.65
2188;BME280;1100;52.014;8.540;2023-04-27T12:24:42;100582.84;;;13.90;44.72
2188;BME280;1100;52.014;8.540;2023-04-27T12:27:07;100585.09;;;13.82;44.82
2188;BME280;1100;52.014;8.540;2023-04-27T12:29:33;100589.31;;;13.87;45.31
2188;BME280;1100;52.014;8.540;2023-04-27T12:31:58;100580.75;;;13.68;45.37
2188;BME280;1100;52.014;8.540;2023-04-27T12:34:24;100586.34;;;13.55;44.78
2188;BME280;1100;52.014;8.540;2023-04-27T12:36:50;100578.41;;;13.53;44.80
2188;BME280;1100;52.014;8.540;2023-04-27T12:39:17;100575.63;;;13.53;45.48
2188;BME280;1100;52.014;8.540;2023-04-27T12:41:44;100572.13;;;13.62;45.96
2188;BME280;1100;52.014;8.540;2023-04-27T12:44:11;100570.88;;;13.76;46.05
2188;BME280;1100;52.014;8.540;2023-04-27T12:46:37;100581.75;;;13.74;44.48
2188;BME280;1100;52.014;8.540;2023-04-27T12:49:03;100574.28;;;13.71;45.53
2188;BME280;1100;52.014;8.540;2023-04-27T12:51:30;100575.75;;;13.98;45.74
2188;BME280;1100;52.014;8.540;2023-04-27T12:53:57;100574.16;;;14.10;45.93
2188;BME280;1100;52.014;8.540;2023-04-27T12:56:22;100574.03;;;14.14;44.62
2188;BME280;1100;52.014;8.540;2023-04-27T12:58:48;100574.38;;;14.16;45.69
2188;BME280;1100;52.014;8.540;2023-04-27T13:01:13;100573.56;;;14.15;45.45
2188;BME280;1100;52.014;8.540;2023-04-27T13:03:42;100578.47;;;14.24;44.35
2188;BME280;1100;52.014;8.540;2023-04-27T13:06:08;100571.22;;;14.14;44.96
2188;BME280;1100;52.014;8.540;2023-04-27T13:08:35;100573.13;;;13.81;45.39
2188;BME280;1100;52.014;8.540;2023-04-27T13:11:01;100571.69;;;13.64;46.02
2188;BME280;1100;52.014;8.540;2023-04-27T13:13:26;100573.59;;;13.67;45.60
2188;BME280;1100;52.014;8.540;2023-04-27T13:15:51;100571.03;;;13.73;45.34
2188;BME280;1100;52.014;8.540;2023-04-27T13:18:17;100571.34;;;13.75;45.85
2188;BME280;1100;52.014;8.540;2023-04-27T13:20:42;100565.47;;;13.95;44.87
2188;BME280;1100;52.014;8.540;2023-04-27T13:23:08;100571.81;;;14.08;45.22
2188;BME280;1100;52.014;8.540;2023-04-27T13:25:33;100568.78;;;14.16;45.17
2188;BME280;1100;52.014;8.540;2023-04-27T13:27:59;100563.06;;;14.19;45.21